Aérodrome :
LOGIN :

S'inscrire | Disclaimer

   EN    FR    IT 

 










Légende :    VFR   VFR Marginal   IFR   IFR Intensif   IFR Très Intensif
Visi : 
Plafond : 
>= 8 km
>= 3000ft
5 à 8 km
1000 à 3000 ft
1500m à 5 km
500 à 1000 ft
800 à 1500m
200 à 500 ft
< 800m
< 200 ft
Symboles :   Orages  Brouillard  Fortes neiges  Fortes précipitations  Vent > 20 kt
SIGMETs :   Divers  Orages  Givrage  Turbulence  Onde Orograph.  Cendres Volcan.






- Altitude de l'aérodrome : 274 ft
- Code IATA : PUY


LDPL - Pula

DERNIER METAR :
  • 011230Z 23014KT 9999 FEW032 31/19 Q1006 TEMPO FEW040TCU

METARs EXPIRÉS :
  • 011200Z 22015KT 9999 FEW032 29/19 Q1006 TEMPO FEW040TCU
  • 011130Z 23016KT 9999 FEW032 29/19 Q1005 TEMPO FEW040TCU
  • 011100Z 22014KT 180V240 9999 FEW032 29/19 Q1005 NOSIG
  • 011030Z 22015KT 9999 FEW026 29/19 Q1005 NOSIG
  • 011000Z 21012KT 150V250 9999 FEW026 29/19 Q1005 NOSIG

TAF TAF LDPL
Valide du 01 à 12h jusqu'au 02 à 12h UTC


011125Z 0112/0212 25014KT 9999 SCT040 TX30/0112Z TN20/0203Z
PROB40
TEMPO 0112/0118 28018G30KT SCT040 FEW045CB
BECMG 0200/0202 25007KT



MET'MAP, la Météo Aéronautique d'un coup d'oeil ! - Copyright ORBIFLY Décembre 2007 - Disclaimer

ORBIFLY MET'MAP TEAM :

Programmation & Développement : Alexandra Zaïnal
Sur une idée originale de : Baudouin d'Aumeries
Assistance à la programmation : Marc-Olivier Méhu
Soutien technique & logistique : Manuel Goepfert

Contact : metmap@orbifly.com




SOURCES & CREDITS :

   NOAA